Time;durP1;ratioP1;P1;durP2;ratioP2;P2;SDS_P1;SDS_P2;PMS_P1;PMS_P2;Temp;Humidity;BMP_temperature;BMP_pressure;BME280_temperature;BME280_humidity;BME280_pressure;Samples;Min_cycle;Max_cycle;Signal;HPM_P1;HPM_P2
2021/06/19 00:01:56;;;;;;;8.80;3.42;;;26.70;55.00;;;;;;4943657;28;20031;-89
2021/06/19 00:04:21;;;;;;;7.13;3.33;;;26.50;55.30;;;;;;4926462;28;20439;-89
2021/06/19 00:06:47;;;;;;;9.65;3.55;;;26.30;54.60;;;;;;4948340;28;20488;-90
2021/06/19 00:09:13;;;;;;;6.88;3.58;;;26.30;56.10;;;;;;4920452;28;20042;-89
2021/06/19 00:11:49;;;;;;;6.95;2.95;;;26.50;56.40;;;;;;4946289;28;20031;-90
2021/06/19 00:14:18;;;;;;;6.63;3.08;;;26.40;56.20;;;;;;4942838;28;20094;-90
2021/06/19 00:16:46;;;;;;;6.43;2.97;;;26.40;56.30;;;;;;4942267;28;20058;-91
2021/06/19 00:19:34;;;;;;;3.80;2.63;;;26.30;56.10;;;;;;4952550;28;20081;-89
2021/06/19 00:22:00;;;;;;;5.97;2.63;;;26.30;56.40;;;;;;4940801;28;20490;-91
2021/06/19 00:24:25;;;;;;;6.90;2.60;;;26.10;55.90;;;;;;4928846;28;20047;-89
2021/06/19 00:26:51;;;;;;;5.47;2.72;;;26.10;56.20;;;;;;4902902;28;20480;-89
2021/06/19 00:29:19;;;;;;;7.25;2.80;;;26.00;55.90;;;;;;4902273;28;20043;-90
2021/06/19 00:31:47;;;;;;;5.47;2.60;;;25.90;56.40;;;;;;4940888;28;20076;-90
2021/06/19 00:34:16;;;;;;;5.03;2.65;;;25.90;56.20;;;;;;4947120;28;20027;-89
2021/06/19 00:36:45;;;;;;;3.22;2.28;;;25.90;56.00;;;;;;5000852;28;20035;-90
2021/06/19 00:39:13;;;;;;;4.07;1.95;;;26.00;55.80;;;;;;4947647;28;20073;-88
2021/06/19 00:41:39;;;;;;;5.70;2.05;;;26.00;56.20;;;;;;4934812;28;20093;-89
2021/06/19 00:44:05;;;;;;;4.43;2.30;;;25.90;56.20;;;;;;4908527;28;20039;-89
2021/06/19 00:46:34;;;;;;;2.35;1.85;;;25.80;56.40;;;;;;4935746;28;20043;-88
2021/06/19 00:49:00;;;;;;;6.70;2.30;;;25.70;56.30;;;;;;4944215;28;20043;-89
2021/06/19 00:51:31;;;;;;;5.40;2.15;;;25.60;56.50;;;;;;4948370;28;20042;-91
2021/06/19 00:53:58;;;;;;;2.95;1.98;;;25.50;56.20;;;;;;4947810;28;20058;-89
2021/06/19 00:56:23;;;;;;;3.08;1.77;;;25.50;55.90;;;;;;4928774;28;20073;-88
2021/06/19 00:58:49;;;;;;;4.35;2.25;;;25.40;56.50;;;;;;4944357;28;20031;-89
2021/06/19 01:01:14;;;;;;;3.22;2.92;;;25.50;56.50;;;;;;4948732;28;20042;-89
2021/06/19 01:03:41;;;;;;;3.40;2.00;;;25.40;56.40;;;;;;4948380;28;20106;-89
2021/06/19 01:06:06;;;;;;;4.32;2.25;;;25.40;56.90;;;;;;4951313;28;20031;-89
2021/06/19 01:08:32;;;;;;;2.63;2.08;;;25.30;57.30;;;;;;4946633;28;20046;-89
2021/06/19 01:10:58;;;;;;;4.22;2.20;;;25.20;57.30;;;;;;4956322;28;20037;-88
2021/06/19 01:13:23;;;;;;;4.22;1.77;;;25.20;57.20;;;;;;4964824;28;20039;-89
2021/06/19 01:15:54;;;;;;;3.45;1.70;;;25.30;57.40;;;;;;4947923;28;20036;-89
2021/06/19 01:18:22;;;;;;;1.50;1.40;;;25.20;57.70;;;;;;4933375;28;20039;-89
2021/06/19 01:20:48;;;;;;;2.95;1.63;;;25.20;57.60;;;;;;4919457;28;20051;-89
2021/06/19 01:23:17;;;;;;;5.00;2.13;;;25.00;57.30;;;;;;4940988;28;20032;-89
2021/06/19 01:25:45;;;;;;;6.47;2.00;;;25.00;57.60;;;;;;4907650;28;20050;-90
2021/06/19 01:28:16;;;;;;;3.08;2.00;;;25.00;57.60;;;;;;4947023;28;20122;-89
2021/06/19 01:30:42;;;;;;;1.75;1.33;;;25.00;57.80;;;;;;4951832;28;20487;-90
2021/06/19 01:33:08;;;;;;;2.40;1.50;;;24.70;57.70;;;;;;4943715;28;20048;-89
2021/06/19 01:35:34;;;;;;;2.83;1.90;;;24.70;57.90;;;;;;4986102;28;20029;-88
2021/06/19 01:38:00;;;;;;;1.67;1.42;;;24.70;58.10;;;;;;4945008;28;20038;-90
2021/06/19 01:40:27;;;;;;;3.13;1.70;;;24.80;58.10;;;;;;4953073;28;20035;-90
2021/06/19 01:42:55;;;;;;;3.72;1.55;;;24.70;58.70;;;;;;4946615;28;20114;-90
2021/06/19 01:45:23;;;;;;;2.78;1.92;;;24.80;58.50;;;;;;4927974;28;20028;-91
2021/06/19 01:47:52;;;;;;;3.30;1.70;;;24.50;59.10;;;;;;4941804;28;20032;-90
2021/06/19 01:50:21;;;;;;;5.35;1.90;;;24.50;58.70;;;;;;4928009;29;20036;-93
2021/06/19 01:52:50;;;;;;;3.20;1.80;;;24.50;58.80;;;;;;4949849;28;20023;-89
2021/06/19 01:55:24;;;;;;;2.10;1.90;;;24.60;59.10;;;;;;4961642;28;20023;-94
2021/06/19 01:57:54;;;;;;;1.93;1.50;;;24.60;59.50;;;;;;4917305;28;20072;-89
2021/06/19 02:00:22;;;;;;;1.92;1.80;;;24.80;58.90;;;;;;4946921;28;20031;-90
2021/06/19 02:02:51;;;;;;;2.97;1.63;;;24.40;58.80;;;;;;4951065;28;20031;-90
2021/06/19 02:05:17;;;;;;;2.03;1.67;;;24.10;59.20;;;;;;4938570;28;20027;-91
2021/06/19 02:07:53;;;;;;;2.13;1.92;;;24.10;60.20;;;;;;4922811;28;20415;-89
2021/06/19 02:10:21;;;;;;;1.88;1.35;;;24.00;60.50;;;;;;4920584;28;20376;-90
2021/06/19 02:13:25;;;;;;;2.10;1.63;;;24.60;60.00;;;;;;4947623;28;20038;-90
2021/06/19 02:15:51;;;;;;;1.70;1.60;;;24.60;59.90;;;;;;4952278;28;20034;-90
2021/06/19 02:18:17;;;;;;;2.20;1.75;;;24.70;59.60;;;;;;4944486;28;20024;-90
2021/06/19 02:20:44;;;;;;;2.28;1.50;;;24.50;59.80;;;;;;4934866;28;20035;-90
2021/06/19 02:23:16;;;;;;;2.72;1.67;;;24.60;59.90;;;;;;4944820;28;20127;-91
2021/06/19 02:25:51;;;;;;;3.13;1.67;;;24.60;60.50;;;;;;4935246;28;20051;-94
2021/06/19 02:28:17;;;;;;;3.35;2.35;;;24.40;61.40;;;;;;4919788;28;20067;-90
2021/06/19 02:30:50;;;;;;;2.72;1.80;;;24.40;61.50;;;;;;4936169;28;20550;-92
2021/06/19 02:33:47;;;;;;;2.50;1.70;;;24.40;61.00;;;;;;4952199;28;20024;-96
2021/06/19 02:36:12;;;;;;;7.20;1.70;;;24.20;61.90;;;;;;4956127;28;20066;-92
2021/06/19 02:38:44;;;;;;;2.05;1.35;;;24.30;61.40;;;;;;4924402;28;20054;-95
2021/06/19 02:41:13;;;;;;;3.08;1.38;;;24.30;61.60;;;;;;4946090;28;20044;-93
2021/06/19 02:43:39;;;;;;;4.03;1.63;;;24.30;61.50;;;;;;4945817;28;20040;-93
2021/06/19 02:46:06;;;;;;;6.57;2.17;;;24.20;62.00;;;;;;4949421;28;20965;-88
2021/06/19 02:48:35;;;;;;;3.28;2.22;;;24.10;61.70;;;;;;4915735;28;20126;-90
2021/06/19 02:51:00;;;;;;;4.22;1.88;;;23.80;63.60;;;;;;4956755;28;20038;-89
2021/06/19 02:53:26;;;;;;;3.03;1.60;;;23.70;62.70;;;;;;4956973;28;20092;-89
2021/06/19 02:55:52;;;;;;;3.90;1.98;;;23.60;62.30;;;;;;4946850;28;20042;-88
2021/06/19 02:58:17;;;;;;;2.67;2.10;;;23.60;62.60;;;;;;4935545;28;20034;-89
2021/06/19 03:00:44;;;;;;;2.50;1.52;;;23.40;61.90;;;;;;4951275;28;20039;-90
2021/06/19 03:03:09;;;;;;;1.92;1.45;;;23.40;62.60;;;;;;4933885;28;20055;-89
2021/06/19 03:05:36;;;;;;;2.58;1.48;;;23.40;62.70;;;;;;4922787;28;20105;-89
2021/06/19 03:08:01;;;;;;;1.75;1.45;;;23.60;62.20;;;;;;4942790;28;20050;-92
2021/06/19 03:10:32;;;;;;;3.95;1.60;;;23.80;62.30;;;;;;4930775;28;20028;-88
2021/06/19 03:12:58;;;;;;;2.55;1.60;;;23.70;62.30;;;;;;4919633;28;20831;-89
2021/06/19 03:15:24;;;;;;;5.35;1.92;;;23.60;62.80;;;;;;4976781;28;20025;-89
2021/06/19 03:17:49;;;;;;;2.97;1.80;;;23.40;62.80;;;;;;4905737;28;20031;-88
2021/06/19 03:20:15;;;;;;;2.80;1.40;;;23.20;62.90;;;;;;4905181;28;20043;-90
2021/06/19 03:22:42;;;;;;;3.08;1.35;;;23.20;63.60;;;;;;4938089;28;20131;-89
2021/06/19 03:25:08;;;;;;;5.85;1.70;;;23.00;63.60;;;;;;4964488;28;20043;-90
2021/06/19 03:27:34;;;;;;;3.63;1.40;;;22.90;63.40;;;;;;5024929;28;20024;-90
2021/06/19 03:29:59;;;;;;;3.00;1.40;;;22.90;63.90;;;;;;4980175;28;20053;-89
2021/06/19 03:32:25;;;;;;;1.65;1.23;;;22.90;63.50;;;;;;4927286;28;20027;-89
2021/06/19 03:34:51;;;;;;;2.90;1.70;;;23.00;63.60;;;;;;4964551;28;21170;-91
2021/06/19 03:37:16;;;;;;;1.92;1.20;;;23.30;63.70;;;;;;4944454;28;20127;-90
2021/06/19 03:39:42;;;;;;;3.08;1.27;;;23.50;63.20;;;;;;4938942;28;20042;-90
2021/06/19 03:42:08;;;;;;;4.93;1.40;;;23.50;62.70;;;;;;4895584;28;20036;-89
2021/06/19 03:44:34;;;;;;;3.08;1.10;;;23.40;62.80;;;;;;4926294;28;20029;-90
2021/06/19 03:47:00;;;;;;;3.25;1.17;;;23.40;63.20;;;;;;4938862;28;20044;-90
2021/06/19 03:49:26;;;;;;;2.75;1.40;;;23.40;63.40;;;;;;4900960;28;20446;-90
2021/06/19 03:51:51;;;;;;;2.10;1.10;;;23.40;63.70;;;;;;4918094;28;20042;-89
2021/06/19 03:54:17;;;;;;;3.20;1.05;;;23.40;63.50;;;;;;4929295;28;20032;-90
2021/06/19 03:56:43;;;;;;;1.42;1.08;;;23.30;63.80;;;;;;4911622;28;20042;-91
2021/06/19 03:59:09;;;;;;;2.10;1.23;;;23.40;63.50;;;;;;4942347;28;20660;-90
2021/06/19 04:01:34;;;;;;;1.17;1.00;;;23.30;64.20;;;;;;4887795;28;20043;-90
2021/06/19 04:04:00;;;;;;;1.00;1.00;;;23.30;64.30;;;;;;4950412;28;20484;-91
2021/06/19 04:06:26;;;;;;;1.58;1.20;;;23.40;63.90;;;;;;4931350;28;20165;-90
2021/06/19 04:08:52;;;;;;;1.50;1.02;;;23.30;63.70;;;;;;4934974;29;20126;-92
2021/06/19 04:11:18;;;;;;;4.22;1.30;;;23.30;63.80;;;;;;4922059;29;20121;-89
2021/06/19 04:13:44;;;;;;;1.25;1.15;;;23.30;63.10;;;;;;4945313;28;20475;-91
2021/06/19 04:16:10;;;;;;;1.13;1.13;;;23.40;62.70;;;;;;4941218;28;20094;-90
2021/06/19 04:18:36;;;;;;;1.52;0.80;;;23.50;62.80;;;;;;4947847;28;20032;-90
2021/06/19 04:21:03;;;;;;;2.25;1.20;;;23.50;62.80;;;;;;4947753;28;20698;-91
2021/06/19 04:23:28;;;;;;;3.15;1.30;;;23.60;63.00;;;;;;4939910;28;20114;-90
2021/06/19 04:25:54;;;;;;;1.45;1.17;;;23.60;64.10;;;;;;4951520;28;20102;-91
2021/06/19 04:28:20;;;;;;;2.70;1.23;;;23.60;63.90;;;;;;4940842;28;20104;-91
2021/06/19 04:30:45;;;;;;;0.82;0.82;;;23.60;63.30;;;;;;4949165;28;20721;-91
2021/06/19 04:33:13;;;;;;;1.00;0.82;;;23.80;62.80;;;;;;4950191;28;20510;-91
2021/06/19 04:35:39;;;;;;;0.70;0.70;;;23.80;63.10;;;;;;4964654;28;20031;-91
2021/06/19 04:38:04;;;;;;;2.42;1.10;;;23.80;63.20;;;;;;4944559;28;20473;-90
2021/06/19 04:45:28;;;;;;;0.90;0.90;;;23.90;63.00;;;;;;4928063;28;20791;-91
2021/06/19 04:47:54;;;;;;;2.30;1.30;;;24.00;62.70;;;;;;4903424;28;20112;-91
2021/06/19 04:50:20;;;;;;;1.50;1.08;;;24.20;62.50;;;;;;4947315;28;20036;-90
2021/06/19 04:52:48;;;;;;;3.90;1.13;;;24.30;62.40;;;;;;4942078;28;20032;-92
2021/06/19 04:55:17;;;;;;;4.80;1.08;;;24.40;61.20;;;;;;4946046;28;20407;-92
2021/06/19 04:57:43;;;;;;;1.52;0.95;;;24.50;61.70;;;;;;4904795;28;20039;-91
2021/06/19 05:00:10;;;;;;;3.33;1.23;;;24.70;61.30;;;;;;4964922;28;20040;-91
2021/06/19 05:05:55;;;;;;;1.92;1.10;;;25.00;60.60;;;;;;4947512;22;20050;-87
2021/06/19 05:08:20;;;;;;;2.38;1.00;;;25.10;59.70;;;;;;5006784;28;20039;-87
2021/06/19 05:10:46;;;;;;;1.20;0.93;;;24.90;60.90;;;;;;4913740;28;20085;-87
2021/06/19 05:13:11;;;;;;;2.78;1.33;;;25.20;60.50;;;;;;4928575;28;20134;-86
2021/06/19 05:15:37;;;;;;;1.60;1.50;;;25.60;60.80;;;;;;4924843;28;20059;-86
2021/06/19 05:18:03;;;;;;;2.30;0.88;;;25.30;59.60;;;;;;4925153;28;20043;-87
2021/06/19 05:20:30;;;;;;;0.88;0.80;;;25.50;59.80;;;;;;4926568;28;20313;-86
2021/06/19 05:22:56;;;;;;;2.15;1.10;;;25.80;59.20;;;;;;4930122;28;20054;-86
2021/06/19 05:25:22;;;;;;;1.63;0.93;;;25.90;59.10;;;;;;4934919;28;20035;-86
2021/06/19 05:27:47;;;;;;;0.85;0.70;;;25.80;59.10;;;;;;4920079;28;20102;-87
2021/06/19 05:30:13;;;;;;;2.92;1.00;;;25.80;59.50;;;;;;4918543;28;20062;-86
2021/06/19 05:32:39;;;;;;;1.52;0.82;;;26.00;59.40;;;;;;4915593;28;20036;-88
2021/06/19 05:35:05;;;;;;;0.77;0.68;;;26.40;59.90;;;;;;4930692;28;20067;-88
2021/06/19 05:37:30;;;;;;;4.60;1.00;;;26.60;58.30;;;;;;4929485;28;20659;-87
2021/06/19 05:39:56;;;;;;;1.92;0.85;;;26.70;59.20;;;;;;4934728;28;20027;-87
2021/06/19 05:42:22;;;;;;;2.97;0.90;;;26.40;57.60;;;;;;4946815;28;20039;-86
2021/06/19 05:44:47;;;;;;;0.68;0.68;;;26.40;59.90;;;;;;4935409;28;20143;-86
2021/06/19 05:47:13;;;;;;;1.08;0.95;;;27.10;58.00;;;;;;4939663;28;20129;-87
2021/06/19 05:49:38;;;;;;;1.00;0.80;;;26.80;57.80;;;;;;4911879;28;20091;-87
2021/06/19 05:52:04;;;;;;;1.08;0.90;;;26.90;58.40;;;;;;4921177;28;20031;-87
2021/06/19 05:54:35;;;;;;;4.50;1.10;;;27.50;58.20;;;;;;4944529;28;20118;-85
2021/06/19 05:57:02;;;;;;;2.42;0.77;;;27.10;56.10;;;;;;4921283;28;20071;-87
2021/06/19 05:59:27;;;;;;;2.28;0.90;;;27.60;57.30;;;;;;4919200;28;20040;-87
2021/06/19 06:01:53;;;;;;;1.52;0.90;;;27.60;56.10;;;;;;4927811;28;20034;-88
2021/06/19 06:04:19;;;;;;;1.52;0.60;;;27.70;56.90;;;;;;4922000;28;20472;-87
2021/06/19 06:06:44;;;;;;;0.80;0.80;;;27.50;55.90;;;;;;4926545;28;20031;-87
2021/06/19 06:09:10;;;;;;;2.22;1.13;;;27.10;56.30;;;;;;4927480;28;20043;-87
2021/06/19 06:11:36;;;;;;;1.67;0.50;;;27.00;56.40;;;;;;4916876;28;20028;-87
2021/06/19 06:14:01;;;;;;;0.90;0.60;;;26.80;56.80;;;;;;4927342;28;20114;-86
2021/06/19 06:16:27;;;;;;;3.50;1.05;;;26.70;57.00;;;;;;4942318;28;20032;-86
2021/06/19 06:18:52;;;;;;;1.70;0.80;;;27.00;57.00;;;;;;4916766;28;20035;-87
2021/06/19 06:21:18;;;;;;;1.65;0.93;;;26.60;57.30;;;;;;4940480;28;20054;-88
2021/06/19 06:23:43;;;;;;;5.03;1.30;;;27.10;57.70;;;;;;4924901;28;20035;-88
2021/06/19 06:26:09;;;;;;;1.58;1.02;;;26.40;57.90;;;;;;4949361;28;20042;-86
2021/06/19 06:28:38;;;;;;;0.75;0.70;;;27.20;57.90;;;;;;4932613;28;20198;-87
2021/06/19 06:31:03;;;;;;;1.15;1.02;;;27.90;55.30;;;;;;4939370;28;20089;-85
2021/06/19 06:33:30;;;;;;;4.30;1.00;;;28.10;55.50;;;;;;4941467;28;20516;-86
2021/06/19 06:35:55;;;;;;;3.20;0.98;;;28.00;55.90;;;;;;4925396;28;20035;-86
2021/06/19 06:38:21;;;;;;;0.77;0.60;;;27.40;56.10;;;;;;4921028;28;20041;-86
2021/06/19 06:40:46;;;;;;;1.13;1.02;;;27.40;55.80;;;;;;4926136;28;20121;-86
2021/06/19 06:43:12;;;;;;;0.75;0.75;;;27.70;55.40;;;;;;4930650;28;20050;-87
2021/06/19 06:45:38;;;;;;;2.05;0.95;;;27.90;55.20;;;;;;4911716;28;20028;-86
2021/06/19 06:48:04;;;;;;;1.08;0.90;;;28.10;55.00;;;;;;4924992;28;20046;-86
2021/06/19 06:50:29;;;;;;;2.40;1.08;;;27.90;55.20;;;;;;4933581;28;20028;-86
2021/06/19 06:52:55;;;;;;;1.27;1.00;;;28.00;55.00;;;;;;4923259;28;20509;-86
2021/06/19 06:55:20;;;;;;;0.45;0.45;;;28.10;55.10;;;;;;4941746;28;20038;-87
2021/06/19 06:57:46;;;;;;;0.85;0.70;;;28.20;54.60;;;;;;4919232;28;20028;-88
2021/06/19 07:00:12;;;;;;;1.33;1.17;;;28.40;54.30;;;;;;4916797;28;20108;-86
2021/06/19 07:02:41;;;;;;;2.05;1.02;;;28.50;54.30;;;;;;4922355;28;20123;-87
2021/06/19 07:05:10;;;;;;;2.33;1.10;;;28.90;53.60;;;;;;4924031;28;20043;-86
2021/06/19 07:07:37;;;;;;;3.13;1.20;;;28.50;53.70;;;;;;4931122;28;20024;-85
2021/06/19 07:10:04;;;;;;;2.95;0.90;;;28.50;54.70;;;;;;4915438;28;20756;-87
2021/06/19 07:12:30;;;;;;;1.65;0.90;;;29.00;53.60;;;;;;4912016;28;20552;-85
2021/06/19 07:14:56;;;;;;;2.40;0.70;;;28.70;53.10;;;;;;4918769;28;20168;-87
2021/06/19 07:17:22;;;;;;;2.67;1.17;;;28.90;53.60;;;;;;4917498;28;20568;-86
2021/06/19 07:19:47;;;;;;;2.15;1.00;;;29.30;53.10;;;;;;4940484;28;20116;-87
2021/06/19 07:22:13;;;;;;;1.13;0.98;;;29.40;51.80;;;;;;4931204;28;20043;-87
2021/06/19 07:24:38;;;;;;;1.27;1.15;;;29.70;52.00;;;;;;4915647;28;20134;-88
2021/06/19 07:27:04;;;;;;;2.20;0.70;;;29.20;52.60;;;;;;4932772;28;20394;-87
2021/06/19 07:29:30;;;;;;;2.72;1.40;;;28.70;52.30;;;;;;4933609;28;20455;-88
2021/06/19 07:31:56;;;;;;;4.20;1.20;;;29.20;52.90;;;;;;4923102;28;20420;-87
2021/06/19 07:34:21;;;;;;;2.72;1.10;;;29.00;52.20;;;;;;4925401;28;20051;-87
2021/06/19 07:36:47;;;;;;;2.85;0.98;;;28.70;53.00;;;;;;4923295;28;20036;-87
2021/06/19 07:39:13;;;;;;;2.47;1.00;;;28.80;52.70;;;;;;4934358;28;20042;-88
2021/06/19 07:41:39;;;;;;;0.75;0.70;;;29.20;52.30;;;;;;4926129;28;20029;-87
2021/06/19 07:44:05;;;;;;;2.15;0.70;;;29.10;51.60;;;;;;4949870;28;20123;-88
2021/06/19 07:46:30;;;;;;;2.30;1.45;;;29.40;51.90;;;;;;4943555;28;20320;-88
2021/06/19 07:48:56;;;;;;;1.00;0.77;;;30.20;50.20;;;;;;4921515;28;20049;-88
2021/06/19 07:51:22;;;;;;;0.75;0.75;;;31.00;49.30;;;;;;4942449;28;20050;-86
2021/06/19 07:53:47;;;;;;;1.75;1.13;;;30.30;48.90;;;;;;4913825;28;20092;-88
2021/06/19 07:56:13;;;;;;;1.27;0.80;;;29.50;50.50;;;;;;4942540;28;20070;-88
2021/06/19 07:58:38;;;;;;;1.42;0.77;;;30.10;50.40;;;;;;4929804;28;20042;-88
2021/06/19 08:01:04;;;;;;;1.10;0.80;;;30.90;49.70;;;;;;4946336;28;20047;-89
2021/06/19 08:03:29;;;;;;;0.75;0.70;;;31.50;48.80;;;;;;4947224;28;20027;-89
2021/06/19 08:05:55;;;;;;;1.88;0.98;;;31.60;48.60;;;;;;4935717;28;20040;-88
2021/06/19 08:08:21;;;;;;;0.73;0.70;;;32.00;48.10;;;;;;4925829;28;20522;-89
2021/06/19 08:10:48;;;;;;;0.80;0.80;;;32.30;47.00;;;;;;4930241;28;20031;-87
2021/06/19 08:13:14;;;;;;;0.82;0.82;;;31.80;47.80;;;;;;4943406;28;20039;-87
2021/06/19 08:15:40;;;;;;;0.60;0.60;;;32.40;47.50;;;;;;4916290;28;20559;-87
2021/06/19 08:18:05;;;;;;;0.60;0.60;;;31.90;46.30;;;;;;4935052;28;20032;-88
2021/06/19 08:20:31;;;;;;;2.45;0.90;;;32.40;47.70;;;;;;4917869;28;20032;-88
2021/06/19 08:22:57;;;;;;;0.68;0.65;;;32.50;46.50;;;;;;4916347;28;20057;-87
2021/06/19 08:25:23;;;;;;;1.30;0.65;;;32.90;45.90;;;;;;4930704;28;20027;-86
2021/06/19 08:27:48;;;;;;;0.68;0.60;;;32.90;45.60;;;;;;4914220;28;20031;-86
2021/06/19 08:30:14;;;;;;;0.77;0.63;;;32.60;46.00;;;;;;4919093;28;20041;-86
2021/06/19 08:32:40;;;;;;;0.52;0.50;;;32.50;46.50;;;;;;4905633;28;20031;-86
2021/06/19 08:35:06;;;;;;;1.15;0.80;;;33.10;45.60;;;;;;4940942;28;20138;-86
2021/06/19 08:37:32;;;;;;;0.75;0.73;;;33.30;45.20;;;;;;4961875;28;20549;-85
2021/06/19 08:39:58;;;;;;;1.00;0.73;;;33.90;44.70;;;;;;4931185;28;20038;-86
2021/06/19 08:42:24;;;;;;;3.95;0.93;;;33.00;43.10;;;;;;4934912;28;20027;-83
2021/06/19 08:44:51;;;;;;;0.70;0.70;;;33.10;44.90;;;;;;4930055;28;20044;-86
2021/06/19 08:47:16;;;;;;;0.98;0.60;;;33.70;43.60;;;;;;4941671;28;20030;-86
2021/06/19 08:49:42;;;;;;;2.05;0.60;;;33.20;43.30;;;;;;4925338;28;20458;-85
2021/06/19 08:52:08;;;;;;;1.33;0.70;;;33.50;43.80;;;;;;4940194;28;20037;-86
2021/06/19 08:54:40;;;;;;;1.73;0.60;;;33.40;42.30;;;;;;4920043;28;20038;-86
2021/06/19 08:57:09;;;;;;;0.75;0.70;;;32.90;43.10;;;;;;4931657;28;20035;-87
2021/06/19 08:59:35;;;;;;;1.65;0.80;;;33.60;44.40;;;;;;4930999;28;20063;-85
2021/06/19 09:02:01;;;;;;;2.55;0.65;;;35.10;41.90;;;;;;4919980;28;20045;-85
2021/06/19 09:04:26;;;;;;;3.83;0.70;;;34.80;41.90;;;;;;4926031;28;20393;-85
2021/06/19 09:06:53;;;;;;;0.82;0.82;;;35.00;42.40;;;;;;4909690;28;20130;-86
2021/06/19 09:09:19;;;;;;;2.15;0.63;;;35.20;42.10;;;;;;4929776;28;20049;-85
2021/06/19 09:11:54;;;;;;;1.00;0.70;;;35.30;41.50;;;;;;4939293;28;20202;-85
2021/06/19 09:14:24;;;;;;;3.63;0.82;;;35.30;41.60;;;;;;4937422;28;20066;-84
2021/06/19 09:16:59;;;;;;;0.95;0.68;;;35.20;41.20;;;;;;4917707;28;20038;-81
2021/06/19 09:19:28;;;;;;;1.33;0.65;;;35.40;40.90;;;;;;4955741;28;20035;-83
2021/06/19 09:22:19;;;;;;;1.20;0.80;;;36.00;40.00;;;;;;4923968;28;20449;-83
2021/06/19 09:24:58;;;;;;;1.33;0.80;;;35.70;39.90;;;;;;4925060;28;20028;-83
2021/06/19 09:27:30;;;;;;;0.70;0.50;;;35.00;40.90;;;;;;4929589;28;20035;-79
2021/06/19 09:30:08;;;;;;;0.60;0.60;;;35.40;40.90;;;;;;4973988;28;20473;-81
2021/06/19 09:32:34;;;;;;;0.60;0.60;;;35.60;40.20;;;;;;4946225;28;20031;-78
2021/06/19 09:35:16;;;;;;;1.23;0.63;;;36.30;40.10;;;;;;4912521;28;20051;-81
2021/06/19 09:37:43;;;;;;;0.73;0.50;;;36.60;39.50;;;;;;4939266;28;20337;-81
2021/06/19 09:40:39;;;;;;;3.40;0.70;;;36.70;38.30;;;;;;4934991;28;20035;-77
2021/06/19 09:43:08;;;;;;;1.10;1.02;;;36.90;38.80;;;;;;4961998;28;20112;-78
2021/06/19 09:45:34;;;;;;;0.93;0.63;;;36.90;38.80;;;;;;4917368;28;20036;-77
2021/06/19 09:48:00;;;;;;;3.92;1.10;;;37.20;38.50;;;;;;4938869;28;20446;-78
2021/06/19 09:50:25;;;;;;;1.30;0.82;;;37.50;37.30;;;;;;4953136;28;20782;-77
2021/06/19 09:52:52;;;;;;;0.73;0.73;;;38.00;36.80;;;;;;4915048;28;20040;-78
2021/06/19 09:55:17;;;;;;;2.10;0.73;;;38.10;36.10;;;;;;4947509;28;20067;-77
2021/06/19 09:57:44;;;;;;;3.00;0.80;;;38.00;36.40;;;;;;4916430;28;20475;-77
2021/06/19 10:00:15;;;;;;;0.73;0.60;;;38.00;37.10;;;;;;4930294;28;20031;-77
2021/06/19 10:02:41;;;;;;;0.77;0.63;;;37.50;37.90;;;;;;4937542;28;20085;-77
2021/06/19 10:05:07;;;;;;;0.73;0.63;;;37.80;37.60;;;;;;4936742;28;20070;-76
2021/06/19 10:07:33;;;;;;;0.55;0.55;;;37.90;37.70;;;;;;4932803;28;22351;-76
2021/06/19 10:09:59;;;;;;;2.83;0.70;;;38.10;37.40;;;;;;4935661;28;20480;-77
2021/06/19 10:12:32;;;;;;;0.85;0.70;;;38.50;36.60;;;;;;4917433;28;20032;-76
2021/06/19 10:15:02;;;;;;;1.70;0.77;;;38.50;36.50;;;;;;4931753;28;20423;-75
2021/06/19 10:17:32;;;;;;;1.05;0.70;;;38.70;35.90;;;;;;4918606;28;20036;-76
2021/06/19 10:20:01;;;;;;;0.90;0.70;;;39.00;34.50;;;;;;4943241;28;20031;-75
2021/06/19 10:22:30;;;;;;;1.45;0.80;;;39.00;35.70;;;;;;4934690;28;20027;-76
2021/06/19 10:24:57;;;;;;;2.15;0.73;;;38.90;35.30;;;;;;4942501;28;20519;-75
2021/06/19 10:27:24;;;;;;;1.85;0.60;;;39.10;35.40;;;;;;4940060;28;20454;-76
2021/06/19 10:29:50;;;;;;;1.35;0.95;;;39.20;35.20;;;;;;4920315;28;20036;-76
2021/06/19 10:32:44;;;;;;;0.50;0.50;;;39.30;34.80;;;;;;4933578;28;20391;-75
2021/06/19 10:35:12;;;;;;;0.45;0.45;;;39.20;35.40;;;;;;4243997;28;10000047;-76
2021/06/19 10:37:38;;;;;;;1.35;0.50;;;39.50;34.90;;;;;;4919635;28;20043;-76
2021/06/19 10:40:17;;;;;;;1.30;0.90;;;39.30;35.50;;;;;;4944691;28;20457;-76
2021/06/19 10:42:43;;;;;;;1.10;0.90;;;39.50;34.40;;;;;;4930366;28;20039;-76
2021/06/19 10:45:22;;;;;;;4.10;0.85;;;39.50;34.20;;;;;;4959351;28;20032;-76
2021/06/19 10:47:58;;;;;;;1.75;0.70;;;39.60;33.50;;;;;;4936088;28;20035;-76
2021/06/19 10:50:24;;;;;;;0.73;0.60;;;39.80;33.00;;;;;;4947137;28;20370;-75
2021/06/19 10:53:11;;;;;;;0.65;0.65;;;39.90;33.00;;;;;;4938185;28;20085;-76
2021/06/19 10:55:43;;;;;;;1.23;0.75;;;39.90;33.00;;;;;;4940509;28;20035;-76
2021/06/19 10:58:19;;;;;;;2.13;0.68;;;40.00;34.10;;;;;;4938656;28;20031;-75
2021/06/19 11:00:46;;;;;;;2.28;0.70;;;40.20;32.80;;;;;;4925545;28;20031;-76
2021/06/19 11:03:12;;;;;;;1.75;0.60;;;40.20;32.60;;;;;;4951288;28;20028;-75
2021/06/19 11:05:40;;;;;;;1.40;0.60;;;40.00;33.40;;;;;;4933303;28;20507;-76
2021/06/19 11:08:06;;;;;;;2.03;0.73;;;40.10;33.50;;;;;;4963984;28;20490;-76
2021/06/19 11:10:44;;;;;;;3.65;0.65;;;40.10;33.00;;;;;;4932080;28;20066;-75
2021/06/19 11:13:28;;;;;;;1.38;0.73;;;40.40;31.90;;;;;;4966927;28;20035;-75
2021/06/19 11:15:54;;;;;;;0.68;0.68;;;40.40;31.80;;;;;;4946723;28;20042;-76
2021/06/19 11:18:48;;;;;;;1.50;0.70;;;40.50;32.40;;;;;;4953643;28;20025;-76
2021/06/19 11:21:33;;;;;;;1.10;0.60;;;40.70;32.40;;;;;;4956908;28;20139;-77
2021/06/19 11:24:02;;;;;;;2.05;0.60;;;40.70;32.50;;;;;;4953778;28;20604;-76
2021/06/19 11:26:54;;;;;;;0.65;0.65;;;40.60;32.90;;;;;;4946954;28;20233;-77
2021/06/19 11:29:35;;;;;;;0.95;0.60;;;40.70;33.20;;;;;;4924678;28;20404;-76
2021/06/19 11:32:30;;;;;;;3.40;0.68;;;41.00;32.50;;;;;;4937509;28;20097;-77
2021/06/19 11:34:59;;;;;;;1.27;0.57;;;41.20;32.10;;;;;;4950333;28;20569;-77
2021/06/19 11:37:43;;;;;;;1.67;0.52;;;41.20;32.20;;;;;;4917708;28;20114;-77
2021/06/19 11:40:11;;;;;;;2.13;0.50;;;41.20;31.50;;;;;;4978247;28;20040;-77
2021/06/19 11:42:43;;;;;;;0.40;0.40;;;41.40;31.10;;;;;;4940090;28;20521;-76
2021/06/19 11:45:14;;;;;;;2.88;0.95;;;41.60;32.00;;;;;;4926550;28;20125;-76
2021/06/19 11:47:39;;;;;;;1.13;0.40;;;41.60;31.60;;;;;;4936326;28;20062;-76
2021/06/19 11:50:09;;;;;;;2.15;0.60;;;41.70;31.60;;;;;;4964170;28;20039;-76
2021/06/19 11:52:34;;;;;;;2.70;0.82;;;41.80;30.60;;;;;;4924190;28;20518;-76
2021/06/19 11:55:00;;;;;;;0.63;0.50;;;41.90;29.70;;;;;;4942723;28;20036;-76
2021/06/19 11:57:28;;;;;;;2.53;0.98;;;42.00;30.00;;;;;;4952467;28;20385;-76
2021/06/19 12:00:20;;;;;;;0.85;0.50;;;41.70;29.70;;;;;;4953864;28;20428;-76
2021/06/19 12:02:50;;;;;;;0.57;0.57;;;42.00;30.00;;;;;;4952460;28;20086;-76
2021/06/19 12:05:17;;;;;;;1.58;0.60;;;42.10;29.80;;;;;;4951414;28;20061;-76
2021/06/19 12:07:45;;;;;;;1.05;0.70;;;42.10;29.60;;;;;;4921520;28;20495;-76
2021/06/19 12:10:28;;;;;;;0.63;0.60;;;41.80;29.60;;;;;;4911819;28;20047;-78
2021/06/19 12:13:04;;;;;;;1.77;0.70;;;42.10;29.70;;;;;;4932281;28;20052;-76
2021/06/19 12:15:29;;;;;;;3.60;0.85;;;42.40;28.60;;;;;;4948522;28;20463;-77
2021/06/19 12:17:55;;;;;;;1.48;0.95;;;42.50;28.70;;;;;;4934338;28;20055;-77
2021/06/19 12:20:22;;;;;;;2.25;0.75;;;42.40;29.70;;;;;;4921156;28;20031;-77
2021/06/19 12:22:48;;;;;;;1.13;0.77;;;42.30;30.10;;;;;;4920335;28;20492;-77
2021/06/19 12:25:29;;;;;;;1.08;0.77;;;42.30;29.30;;;;;;4917546;28;20043;-77
2021/06/19 12:27:55;;;;;;;1.83;0.77;;;42.20;29.00;;;;;;4947207;28;20032;-77
2021/06/19 12:30:20;;;;;;;0.93;0.60;;;42.00;29.60;;;;;;4922424;28;20104;-77
2021/06/19 12:32:46;;;;;;;2.42;0.70;;;42.00;29.60;;;;;;4937777;28;20032;-77
2021/06/19 12:35:13;;;;;;;1.13;0.70;;;42.20;29.80;;;;;;4941804;28;20484;-77
2021/06/19 12:37:40;;;;;;;3.88;0.73;;;42.40;29.90;;;;;;4932357;28;20391;-77
2021/06/19 12:40:10;;;;;;;2.40;0.73;;;42.60;29.70;;;;;;4923947;28;20040;-77
2021/06/19 12:42:46;;;;;;;0.98;0.90;;;42.80;29.70;;;;;;4907895;28;20024;-77
2021/06/19 12:45:23;;;;;;;0.80;0.65;;;42.80;29.10;;;;;;4939896;28;20051;-77
2021/06/19 12:47:49;;;;;;;3.22;0.98;;;42.80;28.60;;;;;;4921208;28;20043;-77
2021/06/19 12:50:20;;;;;;;3.90;1.02;;;42.80;29.40;;;;;;4935048;28;20054;-77
2021/06/19 12:53:05;;;;;;;1.38;0.77;;;42.60;29.80;;;;;;4953566;28;20164;-77
2021/06/19 12:55:36;;;;;;;1.98;0.98;;;42.40;28.90;;;;;;4929017;28;20036;-77
2021/06/19 12:58:14;;;;;;;2.55;0.88;;;42.80;29.40;;;;;;4947319;28;20046;-77
2021/06/19 13:00:41;;;;;;;2.10;0.73;;;43.00;28.70;;;;;;4953783;28;20038;-77